Paintersville, Pennsylvania
Current Conditions -  °F | °C
As of 8:53 PM on Wednesday 22 Oct 2014 (Local Time) from KUNV Reporting Station
Overcast Overcast  
Wind Chill: 41°   Ceiling: 1700
Heat Index: 46°   Visibility: 10mi
Dew Point: 41°   Wind: 12mph
Humidity: 81%   Direction: 360°N
Pressure: 30.07"   Gusts: NA
Location:  40.6073°N, 77.5812°W
Report Text: KUNV 230053Z 36010KT 10SM OVC017 08/05 A3007
Loading
Personal Weather Stations






























Interactive Weather Map
Tropical Storm Tracking
New forecast layout! Learn more

10-Day Weather Forecast

Advertisements
Track Severe Weather on mobile